Time;durP1;ratioP1;P1;durP2;ratioP2;P2;SDS_P1;SDS_P2;PMS_P1;PMS_P2;Temp;Humidity;BMP_temperature;BMP_pressure;BME280_temperature;BME280_humidity;BME280_pressure;Samples;Min_cycle;Max_cycle;Signal;HPM_P1;HPM_P2
2023/09/20 00:00:45;;;;;;;;;;;;;;;29.34;40.53;94264.31;4989681;28;9242;-61
2023/09/20 00:03:15;;;;;;;;;;;;;;;29.33;40.67;94267.63;4996142;28;6852;-61
2023/09/20 00:05:54;;;;;;;;;;;;;;;29.33;41.16;94267.63;4990986;28;9416;-61
2023/09/20 00:08:38;;;;;;;;;;;;;;;29.30;41.17;94268.69;4999105;28;7241;-61
2023/09/20 00:11:15;;;;;;;;;;;;;;;29.31;41.27;94259.84;5011464;28;7230;-61
2023/09/20 00:13:52;;;;;;;;;;;;;;;29.31;41.17;94261.88;5007246;28;8782;-61
2023/09/20 00:16:21;;;;;;;;;;;;;;;29.30;40.79;94263.16;5007965;28;7423;-62
2023/09/20 00:18:47;;;;;;;;;;;;;;;29.30;41.16;94257.59;4989355;28;9276;-61
2023/09/20 00:21:24;;;;;;;;;;;;;;;29.27;40.61;94247.63;5014304;28;7260;-61
2023/09/20 00:23:51;;;;;;;;;;;;;;;29.28;40.23;94246.31;5010920;28;8716;-61
2023/09/20 00:26:20;;;;;;;;;;;;;;;29.27;40.53;94248.38;4993915;28;7287;-61
2023/09/20 00:28:56;;;;;;;;;;;;;;;29.25;41.19;94252.97;5011015;28;6973;-61
2023/09/20 00:31:51;;;;;;;;;;;;;;;29.25;41.16;94250.19;4994666;28;7075;-61
2023/09/20 00:34:28;;;;;;;;;;;;;;;29.26;40.29;94252.41;4938245;28;9081;-62
2023/09/20 00:37:03;;;;;;;;;;;;;;;29.26;40.88;94246.88;4968152;28;7010;-62
2023/09/20 00:39:34;;;;;;;;;;;;;;;29.26;40.70;94243.34;4952547;28;6993;-62
2023/09/20 00:42:02;;;;;;;;;;;;;;;29.25;40.32;94239.84;4954265;28;7154;-61
2023/09/20 00:44:38;;;;;;;;;;;;;;;29.22;41.47;94240.91;4948905;28;7282;-62
2023/09/20 00:47:15;;;;;;;;;;;;;;;29.25;40.80;94239.09;4970250;28;7344;-62
2023/09/20 00:49:45;;;;;;;;;;;;;;;29.24;41.08;94238.34;4950270;28;9138;-62
2023/09/20 00:52:39;;;;;;;;;;;;;;;29.26;41.07;94244.09;4970573;28;7435;-62
2023/09/20 00:55:29;;;;;;;;;;;;;;;29.24;40.43;94238.34;4976731;28;7243;-62
2023/09/20 00:58:09;;;;;;;;;;;;;;;29.23;40.86;94238.91;4971179;28;9175;-62
2023/09/20 01:00:40;;;;;;;;;;;;;;;29.23;40.99;94236.13;4953179;28;7095;-62
2023/09/20 01:03:07;;;;;;;;;;;;;;;29.22;41.44;94231.88;4976270;28;7145;-62
2023/09/20 01:05:42;;;;;;;;;;;;;;;29.21;40.96;94227.63;4964971;28;8857;-62
2023/09/20 01:08:19;;;;;;;;;;;;;;;29.20;40.99;94226.13;4965966;28;7225;-62
2023/09/20 01:10:52;;;;;;;;;;;;;;;29.20;41.18;94228.88;4992310;28;9149;-62
2023/09/20 01:13:21;;;;;;;;;;;;;;;29.21;40.47;94222.09;5019298;28;7315;-62
2023/09/20 01:15:54;;;;;;;;;;;;;;;29.20;40.80;94226.13;4985063;28;8865;-61
2023/09/20 01:18:22;;;;;;;;;;;;;;;29.18;40.61;94228.69;5011226;28;7220;-62
2023/09/20 01:20:54;;;;;;;;;;;;;;;29.17;40.71;94222.41;5004149;28;6986;-62
2023/09/20 01:23:22;;;;;;;;;;;;;;;29.18;41.37;94217.59;5012011;28;7069;-61
2023/09/20 01:25:55;;;;;;;;;;;;;;;29.16;41.17;94220.94;5015810;28;9153;-62
2023/09/20 01:28:28;;;;;;;;;;;;;;;29.17;40.22;94224.44;4998301;28;7503;-62
2023/09/20 01:31:07;;;;;;;;;;;;;;;29.16;40.97;94218.16;4988023;28;7455;-62
2023/09/20 01:33:40;;;;;;;;;;;;;;;29.15;40.21;94216.63;5017454;28;6996;-62
2023/09/20 01:36:09;;;;;;;;;;;;;;;29.17;41.44;94221.69;5000482;28;9449;-62
2023/09/20 01:38:37;;;;;;;;;;;;;;;29.17;40.26;94221.69;4994226;28;7251;-62
2023/09/20 01:41:03;;;;;;;;;;;;;;;29.16;41.44;94209.06;5015165;28;9028;-62
2023/09/20 01:44:16;;;;;;;;;;;;;;;29.15;40.11;94202.78;5006026;28;7337;-62
2023/09/20 01:46:43;;;;;;;;;;;;;;;29.15;40.48;94202.78;4919938;29;9435;-62
2023/09/20 01:49:34;;;;;;;;;;;;;;;29.14;40.96;94203.31;4918768;29;6970;-62
2023/09/20 01:52:14;;;;;;;;;;;;;;;29.11;40.34;94205.13;4914577;29;9059;-62
2023/09/20 01:54:44;;;;;;;;;;;;;;;29.10;40.57;94198.13;4913054;29;7236;-62
2023/09/20 01:57:12;;;;;;;;;;;;;;;29.12;40.77;94206.63;4907209;29;7322;-63
2023/09/20 02:00:16;;;;;;;;;;;;;;;29.12;40.50;94205.88;4909925;29;7142;-62
2023/09/20 02:02:44;;;;;;;;;;;;;;;29.10;40.45;94207.16;4917533;29;7471;-62
2023/09/20 02:05:14;;;;;;;;;;;;;;;29.10;40.70;94196.09;4934374;28;9401;-62
2023/09/20 02:07:41;;;;;;;;;;;;;;;29.10;40.35;94190.53;4915203;29;7051;-62
2023/09/20 02:10:38;;;;;;;;;;;;;;;29.08;41.26;94187.56;4927314;28;8984;-62
2023/09/20 02:13:04;;;;;;;;;;;;;;;29.09;41.35;94202.16;4867469;29;7027;-62
2023/09/20 02:15:34;;;;;;;;;;;;;;;29.09;40.84;94196.63;4869947;29;9326;-62
2023/09/20 02:18:05;;;;;;;;;;;;;;;29.09;40.51;94194.59;4872904;29;7512;-63
2023/09/20 02:20:36;;;;;;;;;;;;;;;29.08;39.98;94184.06;4888263;29;9417;-63
2023/09/20 02:23:05;;;;;;;;;;;;;;;29.05;40.41;94183.13;4899063;29;7226;-62
2023/09/20 02:25:31;;;;;;;;;;;;;;;29.04;40.30;94180.88;4915277;29;7205;-62
2023/09/20 02:28:07;;;;;;;;;;;;;;;29.04;41.13;94178.84;4898470;29;8062;-62
2023/09/20 02:30:36;;;;;;;;;;;;;;;29.03;40.53;94182.19;4915470;29;7319;-62
2023/09/20 02:33:08;;;;;;;;;;;;;;;29.02;40.42;94181.41;4917651;29;9119;-62
2023/09/20 02:35:36;;;;;;;;;;;;;;;29.05;40.16;94187.91;4892639;29;7234;-62
2023/09/20 02:38:05;;;;;;;;;;;;;;;29.04;40.72;94183.66;4917114;29;6962;-63
2023/09/20 02:40:35;;;;;;;;;;;;;;;29.01;40.12;94176.44;4909887;29;7222;-62
2023/09/20 02:43:02;;;;;;;;;;;;;;;29.03;40.16;94180.16;4897049;29;7337;-62
2023/09/20 02:45:29;;;;;;;;;;;;;;;29.02;40.45;94173.13;4917868;28;9141;-62
2023/09/20 02:48:02;;;;;;;;;;;;;;;29.01;40.53;94171.63;4920955;29;7083;-62
2023/09/20 02:50:30;;;;;;;;;;;;;;;29.00;41.04;94170.16;5004781;28;7251;-63
2023/09/20 02:53:06;;;;;;;;;;;;;;;29.00;40.91;94174.94;4994980;28;7283;-57
2023/09/20 02:55:32;;;;;;;;;;;;;;;29.00;40.35;94174.94;5021485;28;7352;-56
2023/09/20 02:58:07;;;;;;;;;;;;;;;29.00;40.93;94172.91;4996577;28;9053;-57
2023/09/20 03:00:33;;;;;;;;;;;;;;;28.99;40.14;94163.09;4993914;28;7241;-57
2023/09/20 03:03:06;;;;;;;;;;;;;;;28.98;40.73;94156.09;4999104;28;6957;-56
2023/09/20 03:05:48;;;;;;;;;;;;;;;29.00;40.06;94164.59;5016668;28;8890;-57
2023/09/20 03:08:24;;;;;;;;;;;;;;;28.98;40.78;94161.63;4990942;28;7333;-57
2023/09/20 03:11:09;;;;;;;;;;;;;;;28.95;40.75;94151.63;4993946;28;7574;-57
2023/09/20 03:13:37;;;;;;;;;;;;;;;28.98;40.87;94167.19;4996289;28;7316;-57
2023/09/20 03:16:04;;;;;;;;;;;;;;;28.96;40.20;94169.75;4993119;28;7168;-56
2023/09/20 03:18:41;;;;;;;;;;;;;;;28.94;41.21;94169.53;5006931;28;9406;-56
2023/09/20 03:21:19;;;;;;;;;;;;;;;28.93;39.97;94170.81;5011018;28;7094;-57
2023/09/20 03:23:45;;;;;;;;;;;;;;;28.95;40.86;94173.78;4999009;28;7244;-56
2023/09/20 03:26:16;;;;;;;;;;;;;;;28.94;40.68;94168.78;5008601;28;8757;-57
2023/09/20 03:28:56;;;;;;;;;;;;;;;28.93;40.51;94170.81;5000395;28;7106;-57
2023/09/20 03:31:35;;;;;;;;;;;;;;;28.95;40.67;94175.78;4995563;28;7317;-57
2023/09/20 03:34:17;;;;;;;;;;;;;;;28.92;40.98;94163.78;4995357;28;7214;-57
2023/09/20 03:36:47;;;;;;;;;;;;;;;28.95;40.16;94173.03;5012143;28;7065;-57
2023/09/20 03:39:15;;;;;;;;;;;;;;;28.94;40.71;94166.03;4996021;28;9126;-57
2023/09/20 03:41:51;;;;;;;;;;;;;;;28.95;40.50;94165.47;5013271;28;6997;-56
2023/09/20 03:44:25;;;;;;;;;;;;;;;28.94;40.11;94166.78;4994104;28;6994;-57
2023/09/20 03:46:51;;;;;;;;;;;;;;;28.94;39.98;94166.03;5001269;28;9984;-57
2023/09/20 03:49:51;;;;;;;;;;;;;;;28.94;39.91;94171.56;5025973;28;8250;-57
2023/09/20 03:52:18;;;;;;;;;;;;;;;28.92;40.37;94165.81;4948534;28;7436;-57
2023/09/20 03:54:49;;;;;;;;;;;;;;;28.91;40.23;94178.16;4941275;28;7262;-57
2023/09/20 03:57:18;;;;;;;;;;;;;;;28.89;40.64;94167.63;4936080;28;8709;-57
2023/09/20 03:59:57;;;;;;;;;;;;;;;28.90;40.45;94169.13;4949028;28;8735;-57
2023/09/20 04:02:25;;;;;;;;;;;;;;;28.90;40.19;94169.13;4948543;28;7199;-57
2023/09/20 04:05:16;;;;;;;;;;;;;;;28.90;40.40;94160.06;4937227;28;6998;-62
2023/09/20 04:07:56;;;;;;;;;;;;;;;28.86;40.81;94148.59;4899227;29;8250;-62
2023/09/20 04:10:27;;;;;;;;;;;;;;;28.88;40.84;94151.56;4960683;28;9162;-61
2023/09/20 04:12:56;;;;;;;;;;;;;;;28.86;41.04;94149.31;4936958;28;8260;-62
2023/09/20 04:15:24;;;;;;;;;;;;;;;28.86;40.71;94154.84;4929940;28;8780;-62
2023/09/20 04:17:51;;;;;;;;;;;;;;;28.87;39.81;94153.59;4940685;28;7603;-62
2023/09/20 04:20:21;;;;;;;;;;;;;;;28.87;40.73;94144.53;4929258;28;7005;-62
2023/09/20 04:23:00;;;;;;;;;;;;;;;28.84;40.88;94148.38;4929654;28;7176;-62
2023/09/20 04:25:27;;;;;;;;;;;;;;;28.86;40.37;94151.38;4947140;28;7634;-62
2023/09/20 04:27:58;;;;;;;;;;;;;;;28.84;40.87;94151.88;4956937;28;7019;-62
2023/09/20 04:30:43;;;;;;;;;;;;;;;28.83;40.35;94150.41;4999351;28;7310;-61
2023/09/20 04:33:10;;;;;;;;;;;;;;;28.81;40.50;94144.66;5006803;28;9477;-62
2023/09/20 04:35:42;;;;;;;;;;;;;;;28.84;40.37;94146.34;5015555;28;8795;-62
2023/09/20 04:38:12;;;;;;;;;;;;;;;28.84;40.92;94145.63;4990746;28;7441;-62
2023/09/20 04:40:45;;;;;;;;;;;;;;;28.84;40.25;94145.63;4985608;28;7136;-62
2023/09/20 04:43:30;;;;;;;;;;;;;;;28.83;39.83;94133.81;4996132;28;8866;-62
2023/09/20 04:45:57;;;;;;;;;;;;;;;28.82;40.01;94129.53;5012083;28;7541;-62
2023/09/20 04:48:23;;;;;;;;;;;;;;;28.83;40.65;94128.25;5006880;28;7081;-62
2023/09/20 04:50:51;;;;;;;;;;;;;;;28.81;40.24;94124.53;4994533;28;6986;-62
2023/09/20 04:53:19;;;;;;;;;;;;;;;28.81;40.82;94124.53;5008603;28;7384;-62
2023/09/20 04:55:50;;;;;;;;;;;;;;;28.81;40.31;94124.53;5012359;28;9214;-62
2023/09/20 04:58:23;;;;;;;;;;;;;;;28.80;40.37;94123.03;4983844;28;7046;-62
2023/09/20 05:00:50;;;;;;;;;;;;;;;28.78;40.57;94125.59;4992247;28;7244;-62
2023/09/20 05:03:31;;;;;;;;;;;;;;;28.78;40.55;94117.31;5015040;28;7115;-62
2023/09/20 05:06:19;;;;;;;;;;;;;;;28.81;40.73;94127.31;5012543;28;6990;-63
2023/09/20 05:08:46;;;;;;;;;;;;;;;28.81;40.02;94125.28;5009867;28;7250;-62
2023/09/20 05:11:31;;;;;;;;;;;;;;;28.82;40.46;94129.53;4991801;28;7342;-63
2023/09/20 05:13:57;;;;;;;;;;;;;;;28.79;40.28;94116.78;5001109;28;7236;-63
2023/09/20 05:16:26;;;;;;;;;;;;;;;28.80;39.89;94118.25;5008232;28;7017;-62
2023/09/20 05:18:55;;;;;;;;;;;;;;;28.81;39.40;94116.25;5010544;28;7466;-62
2023/09/20 05:21:26;;;;;;;;;;;;;;;28.78;39.76;94109.75;4992214;28;7272;-62
2023/09/20 05:24:11;;;;;;;;;;;;;;;28.79;39.61;94111.25;5001760;28;9431;-62
2023/09/20 05:26:38;;;;;;;;;;;;;;;28.78;39.58;94106.22;5009180;28;7153;-62
2023/09/20 05:29:09;;;;;;;;;;;;;;;28.77;40.26;94105.50;4990908;28;7501;-62
2023/09/20 05:31:36;;;;;;;;;;;;;;;28.76;39.53;94101.25;5012290;28;7189;-62
2023/09/20 05:34:05;;;;;;;;;;;;;;;28.74;39.64;94103.81;5011559;28;7225;-63
2023/09/20 05:36:32;;;;;;;;;;;;;;;28.74;39.65;94103.06;5011613;28;7285;-62
2023/09/20 05:39:00;;;;;;;;;;;;;;;28.75;39.79;94104.56;4984608;28;7164;-62
2023/09/20 05:41:40;;;;;;;;;;;;;;;28.74;39.35;94095.50;5012219;28;9164;-62
2023/09/20 05:44:10;;;;;;;;;;;;;;;28.74;39.24;94098.28;4995725;28;9292;-62
2023/09/20 05:46:36;;;;;;;;;;;;;;;28.74;39.83;94101.03;5012947;28;8805;-62
2023/09/20 05:49:05;;;;;;;;;;;;;;;28.74;39.38;94095.50;4988023;28;7000;-62
2023/09/20 05:51:33;;;;;;;;;;;;;;;28.76;39.59;94101.25;5006248;28;7279;-62
2023/09/20 05:53:59;;;;;;;;;;;;;;;28.74;39.12;94100.28;5010975;28;7334;-63
2023/09/20 05:56:30;;;;;;;;;;;;;;;28.74;39.76;94094.75;4994262;28;7254;-62
2023/09/20 05:58:56;;;;;;;;;;;;;;;28.73;39.65;94098.81;5003736;28;9146;-62
2023/09/20 06:01:31;;;;;;;;;;;;;;;28.76;39.79;94092.19;5010149;28;8750;-63
2023/09/20 06:04:03;;;;;;;;;;;;;;;28.75;40.13;94093.50;4999134;28;7183;-63
2023/09/20 06:06:30;;;;;;;;;;;;;;;28.76;39.35;94092.19;5011806;28;8733;-63
2023/09/20 06:09:15;;;;;;;;;;;;;;;28.73;40.08;94088.47;5012153;28;7250;-64
2023/09/20 06:11:41;;;;;;;;;;;;;;;28.71;39.38;94085.50;5009076;28;7070;-64
2023/09/20 06:14:08;;;;;;;;;;;;;;;28.72;39.48;94081.47;5006156;28;8778;-64
2023/09/20 06:16:38;;;;;;;;;;;;;;;28.70;40.01;94075.72;5008707;28;9153;-64
2023/09/20 06:19:06;;;;;;;;;;;;;;;28.72;39.71;94069.66;5007681;28;9152;-63
2023/09/20 06:21:33;;;;;;;;;;;;;;;28.71;39.87;94066.13;4986951;28;7215;-63
2023/09/20 06:23:59;;;;;;;;;;;;;;;28.69;39.62;94077.00;5006189;28;7224;-56
2023/09/20 06:26:26;;;;;;;;;;;;;;;28.71;39.34;94076.47;4992371;28;7218;-56
2023/09/20 06:28:55;;;;;;;;;;;;;;;28.67;39.04;94073.28;5008078;28;7005;-55
2023/09/20 06:31:24;;;;;;;;;;;;;;;28.70;39.61;94080.50;5008290;28;8759;-56
2023/09/20 06:33:50;;;;;;;;;;;;;;;28.69;39.65;94076.25;5000158;28;7222;-55
2023/09/20 06:36:22;;;;;;;;;;;;;;;28.68;39.70;94078.28;4993091;28;7345;-56
2023/09/20 06:38:49;;;;;;;;;;;;;;;28.74;39.90;94069.84;4993805;28;7273;-55
2023/09/20 06:41:16;;;;;;;;;;;;;;;28.74;39.85;94072.63;4992587;28;7375;-55
2023/09/20 06:43:42;;;;;;;;;;;;;;;28.76;39.74;94078.34;5010321;28;7294;-55
2023/09/20 06:46:12;;;;;;;;;;;;;;;28.76;39.66;94075.59;4991949;28;7375;-55
2023/09/20 06:48:40;;;;;;;;;;;;;;;28.74;39.57;94076.13;5010663;28;6988;-56
2023/09/20 06:51:06;;;;;;;;;;;;;;;28.77;40.30;94079.84;4991472;28;7258;-55
2023/09/20 06:53:35;;;;;;;;;;;;;;;28.78;40.42;94079.31;5010023;28;7470;-55
2023/09/20 06:56:02;;;;;;;;;;;;;;;28.78;40.56;94082.06;5013486;28;9110;-55
2023/09/20 06:58:29;;;;;;;;;;;;;;;28.81;41.07;94075.47;4995468;28;7224;-55
2023/09/20 07:01:04;;;;;;;;;;;;;;;28.82;41.22;94082.47;4994880;28;7256;-55
2023/09/20 07:03:32;;;;;;;;;;;;;;;28.80;40.89;94090.56;4983021;28;7227;-55
2023/09/20 07:06:00;;;;;;;;;;;;;;;28.79;41.02;94078.03;5008181;28;7818;-56
2023/09/20 07:08:35;;;;;;;;;;;;;;;28.80;41.23;94073.22;4989203;28;7507;-56
2023/09/20 07:11:06;;;;;;;;;;;;;;;28.82;40.68;94074.16;5005602;28;7576;-56
2023/09/20 07:13:33;;;;;;;;;;;;;;;28.93;40.82;94076.66;4993349;28;6990;-55
2023/09/20 07:16:31;;;;;;;;;;;;;;;29.05;40.39;94083.44;4996859;28;9376;-56
2023/09/20 07:19:04;;;;;;;;;;;;;;;29.08;40.50;94082.34;4948292;28;7257;-55
2023/09/20 07:21:38;;;;;;;;;;;;;;;29.06;40.10;94084.16;4933854;28;8767;-55
2023/09/20 07:24:06;;;;;;;;;;;;;;;29.07;40.64;94078.09;4933099;28;7270;-55
2023/09/20 07:26:32;;;;;;;;;;;;;;;29.05;40.16;94077.16;4932541;28;7258;-55
2023/09/20 07:28:59;;;;;;;;;;;;;;;29.08;40.84;94076.03;4928784;28;8514;-56
2023/09/20 07:31:28;;;;;;;;;;;;;;;29.07;39.65;94072.56;4957618;28;7007;-56
2023/09/20 07:33:56;;;;;;;;;;;;;;;29.04;39.88;94078.41;4960784;28;7564;-63
2023/09/20 07:36:53;;;;;;;;;;;;;;;29.02;40.63;94078.97;4934766;28;9066;-63
2023/09/20 07:39:25;;;;;;;;;;;;;;;28.98;39.65;94075.06;4883845;29;7177;-63
2023/09/20 07:41:52;;;;;;;;;;;;;;;28.95;39.90;94074.09;4898451;29;8859;-62
2023/09/20 07:44:31;;;;;;;;;;;;;;;28.98;40.48;94072.28;4893381;29;7335;-63
2023/09/20 07:47:23;;;;;;;;;;;;;;;28.97;40.56;94065.28;4875017;29;6986;-63
2023/09/20 07:49:50;;;;;;;;;;;;;;;28.95;40.22;94065.78;4875597;29;7517;-63
2023/09/20 07:52:45;;;;;;;;;;;;;;;28.94;40.01;94067.09;4877601;29;7235;-63
2023/09/20 07:55:26;;;;;;;;;;;;;;;28.94;40.32;94063.56;4842567;29;7501;-63
2023/09/20 07:57:52;;;;;;;;;;;;;;;28.94;40.47;94064.31;4862323;29;8733;-63
2023/09/20 08:00:21;;;;;;;;;;;;;;;28.92;40.48;94061.34;4862280;29;9152;-62
2023/09/20 08:02:54;;;;;;;;;;;;;;;28.90;40.42;94065.94;4860382;29;6994;-62
2023/09/20 08:05:22;;;;;;;;;;;;;;;28.82;41.19;94060.31;4853659;29;7221;-62
2023/09/20 08:08:21;;;;;;;;;;;;;;;28.82;40.60;94057.56;4845741;29;9112;-63
2023/09/20 08:10:48;;;;;;;;;;;;;;;28.86;41.08;94060.00;4817511;29;7237;-63
2023/09/20 08:13:14;;;;;;;;;;;;;;;28.86;41.13;94063.50;4827301;29;7672;-63
2023/09/20 08:15:48;;;;;;;;;;;;;;;28.88;40.56;94062.97;4815812;29;7102;-62
2023/09/20 08:21:09;;;;;;;;;;;;;;;28.87;40.11;94051.16;4858788;29;9383;-62
2023/09/20 09:01:05;;;;;;;;;;;;;;;28.85;41.65;94047.44;5010386;28;7619;-66
2023/09/20 09:03:35;;;;;;;;;;;;;;;28.87;40.47;94042.84;4997679;28;8805;-65
2023/09/20 09:06:02;;;;;;;;;;;;;;;28.89;41.04;94040.28;5003921;28;6993;-66
2023/09/20 09:09:01;;;;;;;;;;;;;;;28.90;40.61;94036.25;5006890;28;7007;-65
2023/09/20 09:11:29;;;;;;;;;;;;;;;28.90;41.30;94038.25;4952879;28;7255;-65
2023/09/20 09:13:58;;;;;;;;;;;;;;;28.92;41.23;94041.97;4970364;28;7238;-64
2023/09/20 09:16:28;;;;;;;;;;;;;;;28.90;40.56;94039.00;4959621;28;7353;-64
2023/09/20 09:18:55;;;;;;;;;;;;;;;28.90;40.80;94035.50;4976226;28;7323;-65
2023/09/20 09:21:24;;;;;;;;;;;;;;;28.94;41.35;94035.88;4971461;28;7451;-65
2023/09/20 09:24:04;;;;;;;;;;;;;;;28.95;40.99;94038.09;4961134;28;7172;-65
2023/09/20 09:26:36;;;;;;;;;;;;;;;28.96;40.76;94039.59;4972748;28;7408;-65
2023/09/20 09:29:16;;;;;;;;;;;;;;;28.96;41.27;94034.06;4955554;28;7412;-65
2023/09/20 09:32:27;;;;;;;;;;;;;;;28.97;41.41;94029.28;4969529;28;7301;-64
2023/09/20 09:35:12;;;;;;;;;;;;;;;28.95;41.21;94024.25;4889790;29;7525;-65
2023/09/20 09:38:00;;;;;;;;;;;;;;;29.00;40.56;94034.47;4909584;29;8837;-64
2023/09/20 09:40:28;;;;;;;;;;;;;;;29.01;40.71;94035.22;4913512;29;9017;-65
2023/09/20 09:43:17;;;;;;;;;;;;;;;29.03;40.32;94029.88;4906546;29;7178;-65
2023/09/20 09:45:48;;;;;;;;;;;;;;;29.00;41.57;94028.94;4892710;29;7090;-65
2023/09/20 09:48:16;;;;;;;;;;;;;;;29.03;41.00;94033.38;4887682;29;7641;-65
2023/09/20 09:50:46;;;;;;;;;;;;;;;29.01;40.57;94030.41;4911014;29;7313;-64
2023/09/20 09:53:20;;;;;;;;;;;;;;;29.01;40.81;94021.38;4907303;29;8834;-57
2023/09/20 09:55:48;;;;;;;;;;;;;;;29.02;40.91;94025.59;4891919;29;9451;-56
2023/09/20 09:58:16;;;;;;;;;;;;;;;29.01;41.39;94029.69;4919186;29;9424;-57
2023/09/20 10:00:50;;;;;;;;;;;;;;;29.04;40.80;94028.56;4888068;29;9150;-56
2023/09/20 10:03:24;;;;;;;;;;;;;;;29.04;41.98;94026.56;4917085;29;8308;-56
2023/09/20 10:06:27;;;;;;;;;;;;;;;29.03;42.02;94021.56;4914554;29;9062;-57
2023/09/20 10:09:05;;;;;;;;;;;;;;;29.02;41.78;94029.13;4912413;29;7376;-57
2023/09/20 10:11:32;;;;;;;;;;;;;;;29.03;40.75;94025.09;4945973;28;7003;-56
2023/09/20 10:14:00;;;;;;;;;;;;;;;29.04;40.90;94023.78;4998670;28;7069;-57
2023/09/20 10:16:32;;;;;;;;;;;;;;;29.05;40.99;94028.06;4997101;28;7236;-57
2023/09/20 10:18:59;;;;;;;;;;;;;;;29.07;41.66;94019.94;5006876;28;8939;-57
2023/09/20 10:21:30;;;;;;;;;;;;;;;29.07;41.78;94014.41;4993856;28;7254;-56
2023/09/20 10:23:59;;;;;;;;;;;;;;;29.07;41.94;94008.88;4986712;28;7074;-56
2023/09/20 10:26:35;;;;;;;;;;;;;;;29.03;41.07;94008.47;5003009;28;7183;-56
2023/09/20 10:29:35;;;;;;;;;;;;;;;29.01;42.17;94001.97;5008429;28;7167;-56
2023/09/20 10:32:31;;;;;;;;;;;;;;;29.00;40.73;93994.94;4995785;28;7383;-56
2023/09/20 10:35:19;;;;;;;;;;;;;;;28.99;41.00;93996.25;4904657;29;9093;-56
2023/09/20 10:38:11;;;;;;;;;;;;;;;29.00;41.19;93995.69;4900625;29;7219;-56
2023/09/20 10:40:55;;;;;;;;;;;;;;;29.02;41.91;94000.69;4902005;29;7126;-57
2023/09/20 10:43:49;;;;;;;;;;;;;;;29.01;41.38;93988.84;4902629;29;7306;-57
2023/09/20 10:46:19;;;;;;;;;;;;;;;29.01;41.97;93994.41;4903312;29;7919;-57
2023/09/20 10:48:49;;;;;;;;;;;;;;;29.00;40.97;93984.63;4889119;29;7870;-56
2023/09/20 10:51:41;;;;;;;;;;;;;;;29.01;41.27;93990.91;4905240;29;7203;-57
2023/09/20 10:54:20;;;;;;;;;;;;;;;29.00;41.22;93979.09;4900498;29;7518;-57
2023/09/20 10:56:53;;;;;;;;;;;;;;;29.02;41.03;93979.28;4888919;29;8839;-57
2023/09/20 10:59:25;;;;;;;;;;;;;;;29.01;41.30;93975.00;4904002;29;7269;-57
2023/09/20 11:02:01;;;;;;;;;;;;;;;29.01;41.26;93975.00;4909105;29;7246;-57
2023/09/20 11:04:46;;;;;;;;;;;;;;;29.00;41.60;93973.53;4910774;29;8927;-63
2023/09/20 11:07:14;;;;;;;;;;;;;;;29.04;41.19;93973.94;4911452;29;9232;-63
2023/09/20 11:09:46;;;;;;;;;;;;;;;29.04;41.14;93973.19;4908559;29;7180;-63
2023/09/20 11:12:22;;;;;;;;;;;;;;;29.06;41.47;93965.06;4990926;28;7095;-63
2023/09/20 11:14:50;;;;;;;;;;;;;;;29.03;41.07;93964.16;4992312;28;7361;-64
2023/09/20 11:17:22;;;;;;;;;;;;;;;29.04;41.82;93970.41;5008332;28;8210;-63
2023/09/20 11:19:50;;;;;;;;;;;;;;;29.06;41.66;93965.81;4993116;28;9427;-63
2023/09/20 11:22:18;;;;;;;;;;;;;;;29.07;40.99;93972.13;5013491;28;7516;-63
2023/09/20 11:24:45;;;;;;;;;;;;;;;29.06;40.88;93965.81;4992092;28;7457;-64
2023/09/20 11:27:13;;;;;;;;;;;;;;;29.07;40.97;93969.34;4994381;28;7195;-63
2023/09/20 11:29:40;;;;;;;;;;;;;;;29.09;41.47;93961.22;5008774;28;8754;-64
2023/09/20 11:32:17;;;;;;;;;;;;;;;29.07;42.10;93953.47;5000788;28;7481;-61
2023/09/20 11:34:48;;;;;;;;;;;;;;;29.14;41.13;93963.13;5006775;28;7207;-63
2023/09/20 11:37:17;;;;;;;;;;;;;;;29.13;41.81;93955.34;4994757;28;7105;-63
2023/09/20 11:39:49;;;;;;;;;;;;;;;29.16;41.00;93952.25;5007649;28;7249;-63
2023/09/20 11:42:39;;;;;;;;;;;;;;;29.17;41.44;93950.25;5012313;28;8921;-63
2023/09/20 11:45:10;;;;;;;;;;;;;;;29.18;41.63;93954.47;4991713;28;7263;-62
2023/09/20 11:47:42;;;;;;;;;;;;;;;29.17;41.17;93962.03;4993634;28;7215;-63
2023/09/20 11:50:15;;;;;;;;;;;;;;;29.15;41.78;93958.31;4990652;28;7238;-63
2023/09/20 11:52:49;;;;;;;;;;;;;;;29.17;41.79;93947.47;5008880;28;7047;-63
2023/09/20 11:55:26;;;;;;;;;;;;;;;29.17;41.66;93950.25;5011526;28;7185;-63
2023/09/20 11:57:59;;;;;;;;;;;;;;;29.15;41.85;93947.22;4995275;28;7238;-64
2023/09/20 12:00:29;;;;;;;;;;;;;;;29.15;41.96;93944.44;4989876;28;7066;-64
2023/09/20 12:02:57;;;;;;;;;;;;;;;29.17;40.91;93939.88;4986979;28;7329;-62
2023/09/20 12:05:25;;;;;;;;;;;;;;;29.16;41.17;93943.19;5008296;28;7248;-63
2023/09/20 12:07:58;;;;;;;;;;;;;;;29.18;41.45;93944.16;5008227;28;7256;-63
2023/09/20 12:10:26;;;;;;;;;;;;;;;29.22;40.59;93941.03;4982838;28;7034;-63
2023/09/20 12:12:53;;;;;;;;;;;;;;;29.21;41.46;93931.25;4991669;28;9233;-62
2023/09/20 12:15:29;;;;;;;;;;;;;;;29.20;41.53;93933.25;5009576;28;7851;-62
2023/09/20 12:18:20;;;;;;;;;;;;;;;29.23;40.81;93934.94;5014875;28;8752;-62
2023/09/20 12:21:10;;;;;;;;;;;;;;;29.26;41.72;93931.06;5012431;28;8630;-62
2023/09/20 12:23:39;;;;;;;;;;;;;;;29.25;41.38;93924.06;4994995;28;7268;-62
2023/09/20 12:26:11;;;;;;;;;;;;;;;29.29;41.04;93924.44;4997979;28;7164;-62
2023/09/20 12:28:39;;;;;;;;;;;;;;;29.33;41.31;93918.56;5008450;28;8423;-61
2023/09/20 12:31:06;;;;;;;;;;;;;;;29.39;41.46;93927.44;4995685;28;8749;-62
2023/09/20 12:33:38;;;;;;;;;;;;;;;29.45;40.82;93926.00;4991420;28;7013;-62
2023/09/20 12:36:51;;;;;;;;;;;;;;;29.46;40.99;93915.66;5015887;28;7349;-62
2023/09/20 12:39:28;;;;;;;;;;;;;;;29.48;40.61;93919.38;4950542;28;8776;-62
2023/09/20 12:42:03;;;;;;;;;;;;;;;29.49;41.16;93909.03;4948565;28;7281;-62
2023/09/20 12:44:34;;;;;;;;;;;;;;;29.50;40.22;93908.47;4949464;28;8764;-62
2023/09/20 12:47:21;;;;;;;;;;;;;;;29.54;40.99;93905.34;4950727;28;7224;-62
2023/09/20 12:49:48;;;;;;;;;;;;;;;29.57;40.62;93893.16;4948493;28;7237;-62
2023/09/20 12:52:25;;;;;;;;;;;;;;;29.55;41.00;93890.19;4929977;29;8755;-62
2023/09/20 12:55:25;;;;;;;;;;;;;;;29.61;41.42;93893.53;4931775;28;7256;-62
2023/09/20 12:57:54;;;;;;;;;;;;;;;29.60;40.66;93883.75;4884067;29;7334;-62
2023/09/20 13:00:40;;;;;;;;;;;;;;;29.62;41.02;93884.66;4877952;29;7260;-62
2023/09/20 13:03:40;;;;;;;;;;;;;;;29.62;40.33;93879.13;4888550;29;7361;-62
2023/09/20 13:06:14;;;;;;;;;;;;;;;29.61;40.98;93877.66;4844463;29;8747;-62
2023/09/20 13:09:02;;;;;;;;;;;;;;;29.62;41.03;93872.88;4856311;29;7231;-63
2023/09/20 13:11:30;;;;;;;;;;;;;;;29.63;40.59;93868.78;4857904;29;8816;-63
2023/09/20 13:13:58;;;;;;;;;;;;;;;29.65;40.94;93874.50;4858315;29;7242;-63
2023/09/20 13:16:29;;;;;;;;;;;;;;;29.67;41.07;93869.16;4872131;29;7230;-63
2023/09/20 13:18:56;;;;;;;;;;;;;;;29.70;41.00;93862.53;4869078;29;7348;-62
2023/09/20 13:21:22;;;;;;;;;;;;;;;29.72;41.08;93854.41;4855846;29;9012;-63
2023/09/20 13:23:48;;;;;;;;;;;;;;;29.72;40.91;93843.31;4866399;29;7089;-61
2023/09/20 13:26:25;;;;;;;;;;;;;;;29.77;40.47;93842.44;4860449;29;7392;-61
2023/09/20 13:28:52;;;;;;;;;;;;;;;29.77;40.11;93847.97;4855040;29;9351;-61
2023/09/20 13:31:54;;;;;;;;;;;;;;;29.79;41.06;93846.13;4860107;29;6996;-61
2023/09/20 13:34:22;;;;;;;;;;;;;;;29.82;40.26;93846.31;4868719;29;7596;-61
2023/09/20 13:36:50;;;;;;;;;;;;;;;29.84;40.47;93840.97;4906747;29;7150;-61
2023/09/20 13:39:32;;;;;;;;;;;;;;;29.86;40.16;93830.81;4908852;29;9268;-61
2023/09/20 13:42:05;;;;;;;;;;;;;;;29.88;40.57;93836.53;4963909;28;7278;-61
2023/09/20 13:44:33;;;;;;;;;;;;;;;29.87;39.97;93829.50;4995605;28;7216;-60
2023/09/20 13:47:18;;;;;;;;;;;;;;;29.91;39.74;93826.34;5007363;28;7008;-60
2023/09/20 13:49:58;;;;;;;;;;;;;;;29.91;40.46;93820.81;5007882;28;9483;-61
2023/09/20 13:52:34;;;;;;;;;;;;;;;29.94;40.60;93812.13;5001382;28;7062;-61
2023/09/20 13:55:14;;;;;;;;;;;;;;;29.96;40.53;93806.78;4979927;28;7311;-61
2023/09/20 13:57:41;;;;;;;;;;;;;;;29.95;40.01;93799.75;4994164;28;7254;-60
2023/09/20 14:00:16;;;;;;;;;;;;;;;29.98;40.56;93793.09;4981883;28;9107;-60
2023/09/20 14:02:52;;;;;;;;;;;;;;;30.01;39.75;93785.69;5009653;28;7010;-60
2023/09/20 14:05:20;;;;;;;;;;;;;;;30.02;40.27;93785.16;5016441;28;8848;-61
2023/09/20 14:07:57;;;;;;;;;;;;;;;30.03;39.87;93774.78;4992291;28;7253;-61
2023/09/20 14:10:24;;;;;;;;;;;;;;;30.06;40.24;93771.63;5002786;28;7250;-60
2023/09/20 14:12:51;;;;;;;;;;;;;;;30.11;40.58;93772.75;4993411;28;6977;-60